createdAt,value
2017-04-03T00:00:11.281Z,18.86
2017-04-03T00:05:11.249Z,18.86
2017-04-03T00:10:11.230Z,18.82
2017-04-03T00:15:11.219Z,18.72
2017-04-03T00:20:10.882Z,18.72
2017-04-03T00:25:11.160Z,18.59
2017-04-03T00:30:11.139Z,18.63
2017-04-03T00:35:11.131Z,18.61
2017-04-03T00:40:11.109Z,18.51
2017-04-03T00:45:11.064Z,18.56
2017-04-03T00:50:11.047Z,18.44
2017-04-03T00:55:11.023Z,18.47
2017-04-03T01:00:11.000Z,18.36
2017-04-03T01:05:10.990Z,18.42
2017-04-03T01:10:11.056Z,18.42
2017-04-03T01:15:11.004Z,18.44
2017-04-03T01:20:11.138Z,18.38
2017-04-03T01:25:10.870Z,18.34
2017-04-03T01:30:10.838Z,18.23
2017-04-03T01:35:10.834Z,18.27
2017-04-03T01:40:10.782Z,18.2
2017-04-03T01:45:10.762Z,18.19
2017-04-03T01:50:10.746Z,18.14
2017-04-03T01:55:10.412Z,18.03
2017-04-03T02:00:10.741Z,18.01
2017-04-03T02:05:10.765Z,18.03
2017-04-03T02:10:10.643Z,18.05
2017-04-03T02:15:10.622Z,17.99
2017-04-03T02:20:10.605Z,18.02
2017-04-03T02:25:10.602Z,17.95
2017-04-03T02:30:10.239Z,18.03
2017-04-03T02:35:10.527Z,18.02
2017-04-03T02:40:09.875Z,17.94
2017-04-03T02:45:10.155Z,17.96
2017-04-03T02:50:10.430Z,17.94
2017-04-03T02:55:10.352Z,17.95
2017-04-03T03:00:10.075Z,17.99
2017-04-03T03:05:10.343Z,18.06
2017-04-03T03:10:10.331Z,17.79
2017-04-03T03:15:10.307Z,17.77
2017-04-03T03:20:10.284Z,17.69
2017-04-03T03:25:10.259Z,17.8
2017-04-03T03:30:10.233Z,17.63
2017-04-03T03:35:10.217Z,17.73
2017-04-03T03:40:10.191Z,17.71
2017-04-03T03:45:10.162Z,17.6
2017-04-03T03:50:09.827Z,17.65
2017-04-03T03:55:10.101Z,17.63
2017-04-03T04:00:09.768Z,17.6
2017-04-03T04:05:10.043Z,17.63
2017-04-03T04:10:09.718Z,17.65
2017-04-03T04:15:09.992Z,17.62
2017-04-03T04:20:09.663Z,17.68
2017-04-03T04:25:09.631Z,17.62
2017-04-03T04:30:09.909Z,17.62
2017-04-03T04:35:09.879Z,17.65
2017-04-03T04:40:09.559Z,17.57
2017-04-03T04:45:09.517Z,17.52
2017-04-03T04:50:09.854Z,17.43
2017-04-03T04:55:09.474Z,17.57
2017-04-03T05:00:09.484Z,17.38
2017-04-03T05:05:09.700Z,17.32
2017-04-03T05:10:09.384Z,17.45
2017-04-03T05:15:09.666Z,17.42
2017-04-03T05:20:09.623Z,17.54
2017-04-03T05:25:09.599Z,17.42
2017-04-03T05:30:09.565Z,17.49
2017-04-03T05:35:09.535Z,17.52
2017-04-03T05:40:09.519Z,17.46
2017-04-03T05:45:09.477Z,17.46
2017-04-03T05:50:09.450Z,17.43
2017-04-03T05:55:09.416Z,17.54
2017-04-03T06:00:09.067Z,17.49
2017-04-03T06:05:09.356Z,17.43
2017-04-03T06:10:09.323Z,17.54
2017-04-03T06:15:09.381Z,17.54
2017-04-03T06:20:09.294Z,17.58
2017-04-03T06:25:08.922Z,17.55
2017-04-03T06:30:09.197Z,17.52
2017-04-03T06:35:08.863Z,17.62
2017-04-03T06:40:09.149Z,17.62
2017-04-03T06:45:08.780Z,17.57
2017-04-03T06:50:09.060Z,17.66
2017-04-03T06:55:09.049Z,17.6
2017-04-03T07:00:08.998Z,17.66
2017-04-03T07:05:09.012Z,17.65
2017-04-03T07:10:08.936Z,17.77
2017-04-03T07:15:08.912Z,17.73
2017-04-03T07:20:08.566Z,17.69
2017-04-03T07:25:08.836Z,17.63
2017-04-03T07:30:08.815Z,17.74
2017-04-03T07:35:08.773Z,17.62
2017-04-03T07:40:08.748Z,17.71
2017-04-03T07:45:08.727Z,17.92
2017-04-03T07:50:08.703Z,18.01
2017-04-03T07:55:08.675Z,17.99
2017-04-03T08:00:08.643Z,17.99
2017-04-03T08:05:08.613Z,18.19
2017-04-03T08:10:08.578Z,18.13
2017-04-03T08:15:08.580Z,18.16
2017-04-03T08:20:08.503Z,18.19
2017-04-03T08:25:08.581Z,18.27
2017-04-03T08:30:08.451Z,18.27
2017-04-03T08:35:08.129Z,18.41
2017-04-03T08:40:08.396Z,18.68
2017-04-03T08:45:08.367Z,18.96
2017-04-03T08:50:08.357Z,18.99
2017-04-03T08:55:08.316Z,19.19
2017-04-03T09:00:08.297Z,19.4
2017-04-03T09:05:08.263Z,19.5
2017-04-03T09:10:08.250Z,19.67
2017-04-03T09:15:08.215Z,19.7
2017-04-03T09:20:08.201Z,19.72
2017-04-03T09:25:08.174Z,19.68
2017-04-03T09:30:08.158Z,19.85
2017-04-03T09:35:08.145Z,19.95
2017-04-03T09:40:08.206Z,20.26
2017-04-03T09:45:08.136Z,21.12
2017-04-03T09:50:07.499Z,21.71
2017-04-03T09:55:08.080Z,21.73
2017-04-03T10:00:08.095Z,21.28
2017-04-03T10:05:08.074Z,21.13
2017-04-03T10:10:08.045Z,20.86
2017-04-03T10:15:08.031Z,20.76
2017-04-03T10:20:07.704Z,20.82
2017-04-03T10:25:07.999Z,21.04
2017-04-03T10:30:07.988Z,21.36
2017-04-03T10:35:07.966Z,21.45
2017-04-03T10:40:07.954Z,22.51
2017-04-03T10:45:07.942Z,22.14
2017-04-03T10:50:07.941Z,22.09
2017-04-03T10:55:07.924Z,21.74
2017-04-03T11:00:07.936Z,21.82
2017-04-03T11:05:07.921Z,22.31
2017-04-03T11:10:07.914Z,22.54
2017-04-03T11:15:07.918Z,22.59
2017-04-03T11:20:07.895Z,22.57
2017-04-03T11:25:07.898Z,22.51
2017-04-03T11:30:07.946Z,22.3
2017-04-03T11:35:07.886Z,22.22
2017-04-03T11:40:07.976Z,22.16
2017-04-03T11:45:07.556Z,22.3
2017-04-03T11:50:07.524Z,22.57
2017-04-03T11:55:07.786Z,22.38
2017-04-03T12:00:07.820Z,22.23
2017-04-03T12:05:07.669Z,22.29
2017-04-03T12:10:07.670Z,22.39
2017-04-03T12:15:07.582Z,22.38
2017-04-03T12:20:07.531Z,22.39
2017-04-03T12:25:07.502Z,22.26
2017-04-03T12:30:07.451Z,22.42
2017-04-03T12:35:07.397Z,22.41
2017-04-03T12:40:07.393Z,22.44
2017-04-03T12:45:07.422Z,22.42
2017-04-03T12:50:07.277Z,22.23
2017-04-03T12:55:07.221Z,22.22
2017-04-03T13:00:07.168Z,22.14
2017-04-03T13:05:07.133Z,22.11
2017-04-03T13:10:07.065Z,22.04
2017-04-03T13:15:07.022Z,21.93
2017-04-03T13:20:06.698Z,21.93
2017-04-03T13:25:06.623Z,22.11
2017-04-03T13:30:06.890Z,21.92
2017-04-03T13:35:06.825Z,21.97
2017-04-03T13:40:06.777Z,21.86
2017-04-03T13:45:06.408Z,21.8
2017-04-03T13:50:06.661Z,21.74
2017-04-03T13:55:06.309Z,21.7
2017-04-03T14:00:06.257Z,21.46
2017-04-03T14:05:06.491Z,21.48
2017-04-03T14:10:06.472Z,21.45
2017-04-03T14:15:06.080Z,21.37
2017-04-03T14:20:06.333Z,21.37
2017-04-03T14:25:05.970Z,21.25
2017-04-03T14:30:06.224Z,21.25
2017-04-03T14:35:06.194Z,20.78
2017-04-03T14:40:06.242Z,20.6
2017-04-03T14:45:06.140Z,20.61
2017-04-03T14:50:05.828Z,20.49
2017-04-03T14:55:06.105Z,20.42
2017-04-03T15:00:06.064Z,20.38
2017-04-03T15:05:06.078Z,20.23
2017-04-03T15:10:05.605Z,20.2
2017-04-03T15:15:05.857Z,19.97
2017-04-03T15:20:05.775Z,19.95
2017-04-03T15:25:05.720Z,19.86
2017-04-03T15:30:05.665Z,19.71
2017-04-03T15:35:05.608Z,19.67
2017-04-03T15:40:05.539Z,19.46
2017-04-03T15:45:05.467Z,19.46
2017-04-03T15:50:05.398Z,19.42
2017-04-03T15:55:05.344Z,19.38
2017-04-03T16:00:05.310Z,19.23
2017-04-03T16:05:05.235Z,18.99
2017-04-03T16:10:05.153Z,18.74
2017-04-03T16:15:05.106Z,18.71
2017-04-03T16:20:05.026Z,18.61
2017-04-03T16:25:04.683Z,18.76
2017-04-03T16:30:04.929Z,18.6
2017-04-03T16:35:04.530Z,18.45
2017-04-03T16:40:04.492Z,18.49
2017-04-03T16:45:04.721Z,18.47
2017-04-03T16:50:04.657Z,18.36
2017-04-03T16:55:04.586Z,18.26
2017-04-03T17:00:04.510Z,18.35
2017-04-03T17:05:04.138Z,18.26
2017-04-03T17:10:04.391Z,18.24
2017-04-03T17:15:04.366Z,18.26
2017-04-03T17:20:03.939Z,18.16
2017-04-03T17:25:04.280Z,18.05
2017-04-03T17:30:03.842Z,17.92
2017-04-03T17:35:03.733Z,17.96
2017-04-03T17:40:04.039Z,17.73
2017-04-03T17:45:03.948Z,17.77
2017-04-03T17:50:03.908Z,17.62
2017-04-03T17:55:03.917Z,17.66
2017-04-03T18:00:03.850Z,17.42
2017-04-03T18:05:03.818Z,17.25
2017-04-03T21:20:14.459Z,15.02
2017-04-03T21:25:14.423Z,14.83
